sensor_id;sensor_type;location;lat;lon;timestamp;temperature;humidity
2973;DHT22;1496;51.404;7.232;2022-09-23T00:01:04;11.70;15.70
2973;DHT22;1496;51.404;7.232;2022-09-23T00:03:32;11.70;15.60
2973;DHT22;1496;51.404;7.232;2022-09-23T00:06:04;11.70;15.50
2973;DHT22;1496;51.404;7.232;2022-09-23T00:08:30;11.70;15.40
2973;DHT22;1496;51.404;7.232;2022-09-23T00:11:03;11.70;16.90
2973;DHT22;1496;51.404;7.232;2022-09-23T00:13:29;11.70;17.10
2973;DHT22;1496;51.404;7.232;2022-09-23T00:15:54;11.80;17.00
2973;DHT22;1496;51.404;7.232;2022-09-23T00:18:20;11.70;16.30
2973;DHT22;1496;51.404;7.232;2022-09-23T00:20:46;11.80;16.70
2973;DHT22;1496;51.404;7.232;2022-09-23T00:23:12;11.80;16.40
2973;DHT22;1496;51.404;7.232;2022-09-23T00:25:38;11.80;15.70
2973;DHT22;1496;51.404;7.232;2022-09-23T00:28:04;11.80;17.50
2973;DHT22;1496;51.404;7.232;2022-09-23T00:30:29;11.70;17.80
2973;DHT22;1496;51.404;7.232;2022-09-23T00:32:55;11.80;18.20
2973;DHT22;1496;51.404;7.232;2022-09-23T00:35:21;11.80;18.40
2973;DHT22;1496;51.404;7.232;2022-09-23T00:37:47;11.70;19.10
2973;DHT22;1496;51.404;7.232;2022-09-23T00:40:13;11.70;20.10
2973;DHT22;1496;51.404;7.232;2022-09-23T00:42:45;11.70;19.10
2973;DHT22;1496;51.404;7.232;2022-09-23T00:45:12;11.70;19.00
2973;DHT22;1496;51.404;7.232;2022-09-23T00:48:18;11.70;19.30
2973;DHT22;1496;51.404;7.232;2022-09-23T00:50:38;11.60;19.60
2973;DHT22;1496;51.404;7.232;2022-09-23T00:53:11;11.70;19.50
2973;DHT22;1496;51.404;7.232;2022-09-23T00:55:42;11.70;19.60
2973;DHT22;1496;51.404;7.232;2022-09-23T00:58:11;11.70;19.80
2973;DHT22;1496;51.404;7.232;2022-09-23T01:00:39;11.70;18.80
2973;DHT22;1496;51.404;7.232;2022-09-23T01:03:06;11.70;19.30
2973;DHT22;1496;51.404;7.232;2022-09-23T01:05:32;11.60;20.00
2973;DHT22;1496;51.404;7.232;2022-09-23T01:07:59;11.70;19.20
2973;DHT22;1496;51.404;7.232;2022-09-23T01:10:31;11.60;21.30
2973;DHT22;1496;51.404;7.232;2022-09-23T01:15:46;11.60;23.40
2973;DHT22;1496;51.404;7.232;2022-09-23T01:20:55;11.60;22.30
2973;DHT22;1496;51.404;7.232;2022-09-23T01:26:45;11.50;24.10
2973;DHT22;1496;51.404;7.232;2022-09-23T01:32:16;11.40;27.20
2973;DHT22;1496;51.404;7.232;2022-09-23T01:37:32;11.40;27.20
2973;DHT22;1496;51.404;7.232;2022-09-23T01:42:52;11.40;27.40
2973;DHT22;1496;51.404;7.232;2022-09-23T01:48:16;11.40;23.30
2973;DHT22;1496;51.404;7.232;2022-09-23T01:50:56;11.50;23.10
2973;DHT22;1496;51.404;7.232;2022-09-23T01:56:32;11.60;21.80
2973;DHT22;1496;51.404;7.232;2022-09-23T01:59:16;11.50;22.90
2973;DHT22;1496;51.404;7.232;2022-09-23T02:01:57;11.60;20.80
2973;DHT22;1496;51.404;7.232;2022-09-23T02:04:33;11.60;20.00
2973;DHT22;1496;51.404;7.232;2022-09-23T02:07:08;11.60;19.10
2973;DHT22;1496;51.404;7.232;2022-09-23T02:09:42;11.70;19.90
2973;DHT22;1496;51.404;7.232;2022-09-23T02:12:14;11.70;18.60
2973;DHT22;1496;51.404;7.232;2022-09-23T02:14:51;11.70;19.50
2973;DHT22;1496;51.404;7.232;2022-09-23T02:17:35;11.70;19.10
2973;DHT22;1496;51.404;7.232;2022-09-23T02:20:04;11.60;19.70
2973;DHT22;1496;51.404;7.232;2022-09-23T02:22:39;11.70;18.80
2973;DHT22;1496;51.404;7.232;2022-09-23T02:25:07;11.70;19.10
2973;DHT22;1496;51.404;7.232;2022-09-23T02:30:14;11.70;18.50
2973;DHT22;1496;51.404;7.232;2022-09-23T02:35:38;11.70;18.90
2973;DHT22;1496;51.404;7.232;2022-09-23T02:38:30;11.70;19.20
2973;DHT22;1496;51.404;7.232;2022-09-23T02:44:09;11.70;17.90
2973;DHT22;1496;51.404;7.232;2022-09-23T02:46:35;11.70;18.00
2973;DHT22;1496;51.404;7.232;2022-09-23T02:49:08;11.60;19.40
2973;DHT22;1496;51.404;7.232;2022-09-23T02:51:36;11.60;18.40
2973;DHT22;1496;51.404;7.232;2022-09-23T02:54:04;11.60;19.10
2973;DHT22;1496;51.404;7.232;2022-09-23T02:56:32;11.60;18.40
2973;DHT22;1496;51.404;7.232;2022-09-23T02:58:58;11.60;18.70
2973;DHT22;1496;51.404;7.232;2022-09-23T03:04:10;11.70;18.50
2973;DHT22;1496;51.404;7.232;2022-09-23T03:06:51;11.60;18.00
2973;DHT22;1496;51.404;7.232;2022-09-23T03:09:40;11.60;17.90
2973;DHT22;1496;51.404;7.232;2022-09-23T03:12:37;11.60;18.10
2973;DHT22;1496;51.404;7.232;2022-09-23T03:15:35;11.60;18.50
2973;DHT22;1496;51.404;7.232;2022-09-23T03:18:56;11.60;18.40
2973;DHT22;1496;51.404;7.232;2022-09-23T03:21:22;11.60;18.40
2973;DHT22;1496;51.404;7.232;2022-09-23T03:23:49;11.60;17.80
2973;DHT22;1496;51.404;7.232;2022-09-23T03:26:20;11.50;19.60
2973;DHT22;1496;51.404;7.232;2022-09-23T03:28:48;11.50;19.50
2973;DHT22;1496;51.404;7.232;2022-09-23T03:31:15;11.50;20.00
2973;DHT22;1496;51.404;7.232;2022-09-23T03:33:47;11.50;28.10
2973;DHT22;1496;51.404;7.232;2022-09-23T03:36:16;11.50;20.00
2973;DHT22;1496;51.404;7.232;2022-09-23T03:39:09;11.40;19.60
2973;DHT22;1496;51.404;7.232;2022-09-23T03:41:44;11.30;19.40
2973;DHT22;1496;51.404;7.232;2022-09-23T03:44:19;11.30;20.20
2973;DHT22;1496;51.404;7.232;2022-09-23T03:46:46;11.40;27.40
2973;DHT22;1496;51.404;7.232;2022-09-23T03:49:26;11.40;19.20
2973;DHT22;1496;51.404;7.232;2022-09-23T03:51:55;11.50;17.60
2973;DHT22;1496;51.404;7.232;2022-09-23T03:54:21;11.50;17.10
2973;DHT22;1496;51.404;7.232;2022-09-23T03:56:50;11.40;17.60
2973;DHT22;1496;51.404;7.232;2022-09-23T03:59:16;11.40;17.60
2973;DHT22;1496;51.404;7.232;2022-09-23T04:01:42;11.40;17.80
2973;DHT22;1496;51.404;7.232;2022-09-23T04:04:09;11.30;17.70
2973;DHT22;1496;51.404;7.232;2022-09-23T04:06:34;11.30;17.80
2973;DHT22;1496;51.404;7.232;2022-09-23T04:09:00;11.30;18.40
2973;DHT22;1496;51.404;7.232;2022-09-23T04:11:27;11.30;18.00
2973;DHT22;1496;51.404;7.232;2022-09-23T04:13:56;11.30;18.00
2973;DHT22;1496;51.404;7.232;2022-09-23T04:16:22;11.30;17.70
2973;DHT22;1496;51.404;7.232;2022-09-23T04:18:48;11.30;17.90
2973;DHT22;1496;51.404;7.232;2022-09-23T04:21:14;11.30;18.10
2973;DHT22;1496;51.404;7.232;2022-09-23T04:23:39;11.20;17.40
2973;DHT22;1496;51.404;7.232;2022-09-23T04:26:05;11.30;17.60
2973;DHT22;1496;51.404;7.232;2022-09-23T04:28:31;11.30;18.10
2973;DHT22;1496;51.404;7.232;2022-09-23T04:30:57;11.30;17.60
2973;DHT22;1496;51.404;7.232;2022-09-23T04:33:23;11.30;17.10
2973;DHT22;1496;51.404;7.232;2022-09-23T04:35:50;11.30;17.70
2973;DHT22;1496;51.404;7.232;2022-09-23T04:38:17;11.30;25.30
2973;DHT22;1496;51.404;7.232;2022-09-23T04:40:42;11.30;17.00
2973;DHT22;1496;51.404;7.232;2022-09-23T04:43:08;11.30;16.80
2973;DHT22;1496;51.404;7.232;2022-09-23T04:45:34;11.30;17.60
2973;DHT22;1496;51.404;7.232;2022-09-23T04:47:59;11.30;17.00
2973;DHT22;1496;51.404;7.232;2022-09-23T04:50:26;11.30;16.30
2973;DHT22;1496;51.404;7.232;2022-09-23T04:52:53;11.30;16.50
2973;DHT22;1496;51.404;7.232;2022-09-23T04:55:20;11.30;25.00
2973;DHT22;1496;51.404;7.232;2022-09-23T04:57:45;11.20;16.70
2973;DHT22;1496;51.404;7.232;2022-09-23T05:00:11;11.20;16.70
2973;DHT22;1496;51.404;7.232;2022-09-23T05:02:45;11.20;17.40
2973;DHT22;1496;51.404;7.232;2022-09-23T05:05:12;11.10;17.80
2973;DHT22;1496;51.404;7.232;2022-09-23T05:07:38;11.10;17.90
2973;DHT22;1496;51.404;7.232;2022-09-23T05:10:05;11.10;17.70
2973;DHT22;1496;51.404;7.232;2022-09-23T05:12:31;11.10;17.70
2973;DHT22;1496;51.404;7.232;2022-09-23T05:14:57;11.10;17.30
2973;DHT22;1496;51.404;7.232;2022-09-23T05:17:23;11.10;17.50
2973;DHT22;1496;51.404;7.232;2022-09-23T05:19:49;11.00;17.80
2973;DHT22;1496;51.404;7.232;2022-09-23T05:22:14;11.00;18.60
2973;DHT22;1496;51.404;7.232;2022-09-23T05:24:40;11.00;18.70
2973;DHT22;1496;51.404;7.232;2022-09-23T05:27:06;11.00;18.40
2973;DHT22;1496;51.404;7.232;2022-09-23T05:29:32;11.00;18.70
2973;DHT22;1496;51.404;7.232;2022-09-23T05:31:58;11.00;19.70
2973;DHT22;1496;51.404;7.232;2022-09-23T05:34:24;11.00;19.90
2973;DHT22;1496;51.404;7.232;2022-09-23T05:36:49;11.00;18.90
2973;DHT22;1496;51.404;7.232;2022-09-23T05:39:15;11.00;19.00
2973;DHT22;1496;51.404;7.232;2022-09-23T05:41:41;11.00;18.60
2973;DHT22;1496;51.404;7.232;2022-09-23T05:44:08;11.10;18.90
2973;DHT22;1496;51.404;7.232;2022-09-23T05:46:33;11.10;18.80
2973;DHT22;1496;51.404;7.232;2022-09-23T05:49:00;11.20;18.20
2973;DHT22;1496;51.404;7.232;2022-09-23T05:51:26;11.20;18.90
2973;DHT22;1496;51.404;7.232;2022-09-23T05:53:53;11.20;17.90
2973;DHT22;1496;51.404;7.232;2022-09-23T05:56:21;11.30;18.90
2973;DHT22;1496;51.404;7.232;2022-09-23T05:58:51;11.20;18.30
2973;DHT22;1496;51.404;7.232;2022-09-23T06:01:19;11.30;18.70
2973;DHT22;1496;51.404;7.232;2022-09-23T06:03:49;11.30;18.50
2973;DHT22;1496;51.404;7.232;2022-09-23T06:06:17;11.40;18.20
2973;DHT22;1496;51.404;7.232;2022-09-23T06:08:45;11.40;17.90
2973;DHT22;1496;51.404;7.232;2022-09-23T06:11:11;11.40;18.20
2973;DHT22;1496;51.404;7.232;2022-09-23T06:13:37;11.40;18.60
2973;DHT22;1496;51.404;7.232;2022-09-23T06:16:11;11.40;18.60
2973;DHT22;1496;51.404;7.232;2022-09-23T06:18:39;11.30;19.80
2973;DHT22;1496;51.404;7.232;2022-09-23T06:21:05;11.30;20.10
2973;DHT22;1496;51.404;7.232;2022-09-23T06:23:31;11.40;19.20
2973;DHT22;1496;51.404;7.232;2022-09-23T06:26:04;11.40;19.20
2973;DHT22;1496;51.404;7.232;2022-09-23T06:28:32;11.50;19.90
2973;DHT22;1496;51.404;7.232;2022-09-23T06:31:10;11.50;20.40
2973;DHT22;1496;51.404;7.232;2022-09-23T06:33:36;11.50;19.80
2973;DHT22;1496;51.404;7.232;2022-09-23T06:36:06;11.50;20.80
2973;DHT22;1496;51.404;7.232;2022-09-23T06:38:32;11.60;19.50
2973;DHT22;1496;51.404;7.232;2022-09-23T06:41:01;11.60;20.10
2973;DHT22;1496;51.404;7.232;2022-09-23T06:43:28;11.70;19.50
2973;DHT22;1496;51.404;7.232;2022-09-23T06:45:55;11.80;19.30
2973;DHT22;1496;51.404;7.232;2022-09-23T06:48:22;11.80;19.00
2973;DHT22;1496;51.404;7.232;2022-09-23T06:50:49;11.90;19.10
2973;DHT22;1496;51.404;7.232;2022-09-23T06:53:16;11.90;19.10
2973;DHT22;1496;51.404;7.232;2022-09-23T06:55:42;12.10;19.40
2973;DHT22;1496;51.404;7.232;2022-09-23T06:58:08;12.10;18.50
2973;DHT22;1496;51.404;7.232;2022-09-23T07:00:35;12.30;18.40
2973;DHT22;1496;51.404;7.232;2022-09-23T07:03:06;12.40;19.10
2973;DHT22;1496;51.404;7.232;2022-09-23T07:05:33;12.50;20.90
2973;DHT22;1496;51.404;7.232;2022-09-23T07:07:58;12.60;23.10
2973;DHT22;1496;51.404;7.232;2022-09-23T07:10:24;12.70;23.50
2973;DHT22;1496;51.404;7.232;2022-09-23T07:12:51;12.80;19.20
2973;DHT22;1496;51.404;7.232;2022-09-23T07:15:17;12.90;23.00
2973;DHT22;1496;51.404;7.232;2022-09-23T07:17:42;13.00;22.30
2973;DHT22;1496;51.404;7.232;2022-09-23T07:20:08;13.10;21.40
2973;DHT22;1496;51.404;7.232;2022-09-23T07:22:36;13.10;19.20
2973;DHT22;1496;51.404;7.232;2022-09-23T07:25:03;13.30;19.00
2973;DHT22;1496;51.404;7.232;2022-09-23T07:27:30;13.30;19.40
2973;DHT22;1496;51.404;7.232;2022-09-23T07:29:57;13.40;20.70
2973;DHT22;1496;51.404;7.232;2022-09-23T07:32:23;13.40;20.20
2973;DHT22;1496;51.404;7.232;2022-09-23T07:34:48;13.50;20.70
2973;DHT22;1496;51.404;7.232;2022-09-23T07:37:16;13.60;19.90
2973;DHT22;1496;51.404;7.232;2022-09-23T07:39:43;13.70;21.40
2973;DHT22;1496;51.404;7.232;2022-09-23T07:42:09;13.70;19.30
2973;DHT22;1496;51.404;7.232;2022-09-23T07:44:37;13.70;19.70
2973;DHT22;1496;51.404;7.232;2022-09-23T07:47:03;13.70;18.20
2973;DHT22;1496;51.404;7.232;2022-09-23T07:49:28;13.90;21.10
2973;DHT22;1496;51.404;7.232;2022-09-23T07:51:54;14.00;22.10
2973;DHT22;1496;51.404;7.232;2022-09-23T07:54:20;13.90;19.00
2973;DHT22;1496;51.404;7.232;2022-09-23T07:56:46;14.00;18.40
2973;DHT22;1496;51.404;7.232;2022-09-23T07:59:14;14.00;19.70
2973;DHT22;1496;51.404;7.232;2022-09-23T08:01:47;14.00;18.60
2973;DHT22;1496;51.404;7.232;2022-09-23T08:04:20;14.10;19.30
2973;DHT22;1496;51.404;7.232;2022-09-23T08:06:51;14.20;21.20
2973;DHT22;1496;51.404;7.232;2022-09-23T08:09:20;14.20;22.10
2973;DHT22;1496;51.404;7.232;2022-09-23T08:11:47;14.20;21.10
2973;DHT22;1496;51.404;7.232;2022-09-23T08:14:14;14.30;19.90
2973;DHT22;1496;51.404;7.232;2022-09-23T08:16:42;14.40;20.10
2973;DHT22;1496;51.404;7.232;2022-09-23T08:19:10;14.50;19.40
2973;DHT22;1496;51.404;7.232;2022-09-23T08:21:37;14.50;18.80
2973;DHT22;1496;51.404;7.232;2022-09-23T08:24:08;14.40;19.00
2973;DHT22;1496;51.404;7.232;2022-09-23T08:26:35;14.40;14.90
2973;DHT22;1496;51.404;7.232;2022-09-23T08:29:02;14.40;16.40
2973;DHT22;1496;51.404;7.232;2022-09-23T08:31:28;14.40;15.50
2973;DHT22;1496;51.404;7.232;2022-09-23T08:33:55;14.40;16.30
2973;DHT22;1496;51.404;7.232;2022-09-23T08:36:22;14.40;18.10
2973;DHT22;1496;51.404;7.232;2022-09-23T08:38:47;14.50;19.90
2973;DHT22;1496;51.404;7.232;2022-09-23T08:43:58;14.50;19.50
2973;DHT22;1496;51.404;7.232;2022-09-23T08:46:31;14.50;19.50
2973;DHT22;1496;51.404;7.232;2022-09-23T08:48:58;14.60;22.70
2973;DHT22;1496;51.404;7.232;2022-09-23T08:51:30;14.60;24.50
2973;DHT22;1496;51.404;7.232;2022-09-23T08:53:59;14.60;20.90
2973;DHT22;1496;51.404;7.232;2022-09-23T08:56:27;14.60;20.80
2973;DHT22;1496;51.404;7.232;2022-09-23T09:01:51;14.80;22.20
2973;DHT22;1496;51.404;7.232;2022-09-23T09:07:01;14.90;20.20
2973;DHT22;1496;51.404;7.232;2022-09-23T09:12:31;15.00;20.60
2973;DHT22;1496;51.404;7.232;2022-09-23T09:15:09;15.00;22.70
2973;DHT22;1496;51.404;7.232;2022-09-23T09:17:52;15.10;24.60
2973;DHT22;1496;51.404;7.232;2022-09-23T09:20:23;15.10;23.50
2973;DHT22;1496;51.404;7.232;2022-09-23T09:22:56;15.10;23.90
2973;DHT22;1496;51.404;7.232;2022-09-23T09:25:48;15.20;22.70
2973;DHT22;1496;51.404;7.232;2022-09-23T09:28:32;15.20;22.60
2973;DHT22;1496;51.404;7.232;2022-09-23T09:31:04;15.30;27.30
2973;DHT22;1496;51.404;7.232;2022-09-23T09:33:43;15.30;25.20
2973;DHT22;1496;51.404;7.232;2022-09-23T09:36:25;15.20;22.40
2973;DHT22;1496;51.404;7.232;2022-09-23T09:38:51;15.20;21.90
2973;DHT22;1496;51.404;7.232;2022-09-23T09:41:17;15.30;20.60
2973;DHT22;1496;51.404;7.232;2022-09-23T09:43:46;15.30;24.20
2973;DHT22;1496;51.404;7.232;2022-09-23T09:49:02;15.30;20.30
2973;DHT22;1496;51.404;7.232;2022-09-23T09:51:31;15.40;20.10
2973;DHT22;1496;51.404;7.232;2022-09-23T09:54:35;15.40;22.30
2973;DHT22;1496;51.404;7.232;2022-09-23T09:57:04;15.40;16.20
2973;DHT22;1496;51.404;7.232;2022-09-23T09:59:31;15.50;21.40
2973;DHT22;1496;51.404;7.232;2022-09-23T10:02:35;15.50;18.70
2973;DHT22;1496;51.404;7.232;2022-09-23T10:05:05;15.70;19.00
2973;DHT22;1496;51.404;7.232;2022-09-23T10:07:33;15.80;16.20
2973;DHT22;1496;51.404;7.232;2022-09-23T10:10:17;15.80;13.40
2973;DHT22;1496;51.404;7.232;2022-09-23T10:12:46;15.90;11.40
2973;DHT22;1496;51.404;7.232;2022-09-23T10:15:29;16.00;12.50
2973;DHT22;1496;51.404;7.232;2022-09-23T10:17:57;16.10;12.00
2973;DHT22;1496;51.404;7.232;2022-09-23T10:20:34;16.10;11.60
2973;DHT22;1496;51.404;7.232;2022-09-23T10:23:14;16.10;10.60
2973;DHT22;1496;51.404;7.232;2022-09-23T10:25:42;16.10;12.40
2973;DHT22;1496;51.404;7.232;2022-09-23T10:28:43;16.30;13.70
2973;DHT22;1496;51.404;7.232;2022-09-23T10:31:13;16.20;10.00
2973;DHT22;1496;51.404;7.232;2022-09-23T10:33:43;16.30;7.60
2973;DHT22;1496;51.404;7.232;2022-09-23T10:36:13;16.30;8.80
2973;DHT22;1496;51.404;7.232;2022-09-23T10:38:38;16.40;8.80
2973;DHT22;1496;51.404;7.232;2022-09-23T10:41:12;16.30;5.20
2973;DHT22;1496;51.404;7.232;2022-09-23T11:00:29;16.70;4.10
2973;DHT22;1496;51.404;7.232;2022-09-23T11:03:01;16.70;2.60
2973;DHT22;1496;51.404;7.232;2022-09-23T11:05:40;16.60;1.00
2973;DHT22;1496;51.404;7.232;2022-09-23T11:11:18;16.70;13.70
2973;DHT22;1496;51.404;7.232;2022-09-23T11:25:32;17.20;2.10
2973;DHT22;1496;51.404;7.232;2022-09-23T11:31:22;17.40;1.00
2973;DHT22;1496;51.404;7.232;2022-09-23T11:37:10;17.50;1.00
2973;DHT22;1496;51.404;7.232;2022-09-23T11:39:46;17.70;1.00
2973;DHT22;1496;51.404;7.232;2022-09-23T11:42:21;17.90;1.00
2973;DHT22;1496;51.404;7.232;2022-09-23T11:45:21;17.80;1.00
2973;DHT22;1496;51.404;7.232;2022-09-23T11:47:56;17.90;1.00
2973;DHT22;1496;51.404;7.232;2022-09-23T11:50:45;18.10;1.00
2973;DHT22;1496;51.404;7.232;2022-09-23T11:53:22;18.10;1.00
2973;DHT22;1496;51.404;7.232;2022-09-23T11:59:51;17.90;1.00
2973;DHT22;1496;51.404;7.232;2022-09-23T12:02:39;18.00;1.00
2973;DHT22;1496;51.404;7.232;2022-09-23T12:05:16;18.00;1.00
2973;DHT22;1496;51.404;7.232;2022-09-23T12:07:58;17.90;1.00
2973;DHT22;1496;51.404;7.232;2022-09-23T12:10:42;18.00;1.00
2973;DHT22;1496;51.404;7.232;2022-09-23T12:13:14;17.80;1.00
2973;DHT22;1496;51.404;7.232;2022-09-23T12:21:53;17.90;1.00
2973;DHT22;1496;51.404;7.232;2022-09-23T12:29:58;18.00;1.00
2973;DHT22;1496;51.404;7.232;2022-09-23T12:32:26;18.10;1.00
2973;DHT22;1496;51.404;7.232;2022-09-23T12:34:53;18.00;1.00
2973;DHT22;1496;51.404;7.232;2022-09-23T12:37:32;18.00;1.00
2973;DHT22;1496;51.404;7.232;2022-09-23T12:40:04;18.00;1.00
2973;DHT22;1496;51.404;7.232;2022-09-23T12:42:31;17.90;1.00
2973;DHT22;1496;51.404;7.232;2022-09-23T12:45:18;17.90;1.00
2973;DHT22;1496;51.404;7.232;2022-09-23T12:47:44;17.80;1.00
2973;DHT22;1496;51.404;7.232;2022-09-23T12:50:48;17.70;1.00
2973;DHT22;1496;51.404;7.232;2022-09-23T12:56:25;17.60;1.00
2973;DHT22;1496;51.404;7.232;2022-09-23T12:59:09;17.50;1.00
2973;DHT22;1496;51.404;7.232;2022-09-23T13:01:36;17.50;1.00
2973;DHT22;1496;51.404;7.232;2022-09-23T13:04:02;17.40;1.00
2973;DHT22;1496;51.404;7.232;2022-09-23T13:09:28;17.30;1.00
2973;DHT22;1496;51.404;7.232;2022-09-23T13:12:00;17.30;1.00
2973;DHT22;1496;51.404;7.232;2022-09-23T13:14:28;17.20;1.00
2973;DHT22;1496;51.404;7.232;2022-09-23T13:16:55;17.10;1.00
2973;DHT22;1496;51.404;7.232;2022-09-23T13:32:29;17.00;1.00
2973;DHT22;1496;51.404;7.232;2022-09-23T13:40:14;16.80;1.00
2973;DHT22;1496;51.404;7.232;2022-09-23T13:42:40;16.80;1.00
2973;DHT22;1496;51.404;7.232;2022-09-23T13:45:14;16.80;1.00
2973;DHT22;1496;51.404;7.232;2022-09-23T13:47:42;16.80;1.00
2973;DHT22;1496;51.404;7.232;2022-09-23T13:50:20;16.80;1.00
2973;DHT22;1496;51.404;7.232;2022-09-23T13:52:51;16.80;1.00
2973;DHT22;1496;51.404;7.232;2022-09-23T13:55:30;16.80;1.00
2973;DHT22;1496;51.404;7.232;2022-09-23T13:57:57;16.80;1.00
2973;DHT22;1496;51.404;7.232;2022-09-23T14:00:23;16.80;1.00
2973;DHT22;1496;51.404;7.232;2022-09-23T14:02:50;16.70;1.00
2973;DHT22;1496;51.404;7.232;2022-09-23T14:05:25;16.70;1.00
2973;DHT22;1496;51.404;7.232;2022-09-23T14:07:55;16.70;1.00
2973;DHT22;1496;51.404;7.232;2022-09-23T14:10:22;16.60;1.00
2973;DHT22;1496;51.404;7.232;2022-09-23T14:12:50;16.60;1.00
2973;DHT22;1496;51.404;7.232;2022-09-23T14:15:18;16.50;1.00
2973;DHT22;1496;51.404;7.232;2022-09-23T14:17:51;16.50;1.00
2973;DHT22;1496;51.404;7.232;2022-09-23T14:20:19;16.50;1.00
2973;DHT22;1496;51.404;7.232;2022-09-23T14:22:45;16.50;1.00
2973;DHT22;1496;51.404;7.232;2022-09-23T14:25:16;16.50;1.00
2973;DHT22;1496;51.404;7.232;2022-09-23T14:27:42;16.50;1.00
2973;DHT22;1496;51.404;7.232;2022-09-23T14:30:16;16.50;1.00
2973;DHT22;1496;51.404;7.232;2022-09-23T14:32:45;16.40;1.00
2973;DHT22;1496;51.404;7.232;2022-09-23T14:35:26;16.40;1.00
2973;DHT22;1496;51.404;7.232;2022-09-23T14:38:02;16.30;1.00
2973;DHT22;1496;51.404;7.232;2022-09-23T14:41:34;16.30;1.00
2973;DHT22;1496;51.404;7.232;2022-09-23T14:44:02;16.30;1.00
2973;DHT22;1496;51.404;7.232;2022-09-23T14:46:32;16.30;1.00
2973;DHT22;1496;51.404;7.232;2022-09-23T14:51:45;16.20;1.00
2973;DHT22;1496;51.404;7.232;2022-09-23T14:54:34;16.20;1.00
2973;DHT22;1496;51.404;7.232;2022-09-23T14:57:03;16.10;1.00
2973;DHT22;1496;51.404;7.232;2022-09-23T14:59:49;16.20;1.00
2973;DHT22;1496;51.404;7.232;2022-09-23T15:07:37;16.20;1.00
2973;DHT22;1496;51.404;7.232;2022-09-23T15:10:07;16.10;1.00
2973;DHT22;1496;51.404;7.232;2022-09-23T15:12:37;16.10;1.00
2973;DHT22;1496;51.404;7.232;2022-09-23T15:15:11;16.10;1.00
2973;DHT22;1496;51.404;7.232;2022-09-23T15:17:38;16.10;1.00
2973;DHT22;1496;51.404;7.232;2022-09-23T15:20:23;16.10;1.00
2973;DHT22;1496;51.404;7.232;2022-09-23T15:22:53;16.20;1.00
2973;DHT22;1496;51.404;7.232;2022-09-23T15:25:26;16.20;1.00
2973;DHT22;1496;51.404;7.232;2022-09-23T15:30:21;16.10;1.00
2973;DHT22;1496;51.404;7.232;2022-09-23T15:32:46;16.10;1.00
2973;DHT22;1496;51.404;7.232;2022-09-23T15:35:17;16.10;1.00
2973;DHT22;1496;51.404;7.232;2022-09-23T15:37:44;16.10;1.00
2973;DHT22;1496;51.404;7.232;2022-09-23T15:40:34;16.10;1.00
2973;DHT22;1496;51.404;7.232;2022-09-23T15:43:18;16.10;1.00
2973;DHT22;1496;51.404;7.232;2022-09-23T15:45:47;16.10;1.00
2973;DHT22;1496;51.404;7.232;2022-09-23T15:48:16;16.00;1.00
2973;DHT22;1496;51.404;7.232;2022-09-23T15:50:42;16.00;2.80
2973;DHT22;1496;51.404;7.232;2022-09-23T15:53:17;16.00;1.00
2973;DHT22;1496;51.404;7.232;2022-09-23T15:55:43;16.00;1.00
2973;DHT22;1496;51.404;7.232;2022-09-23T15:58:12;16.00;1.00
2973;DHT22;1496;51.404;7.232;2022-09-23T16:00:38;16.00;1.00
2973;DHT22;1496;51.404;7.232;2022-09-23T16:03:04;16.10;1.00
2973;DHT22;1496;51.404;7.232;2022-09-23T16:05:35;16.00;1.00
2973;DHT22;1496;51.404;7.232;2022-09-23T16:08:05;16.00;1.00
2973;DHT22;1496;51.404;7.232;2022-09-23T16:10:33;16.00;1.00
2973;DHT22;1496;51.404;7.232;2022-09-23T16:13:00;16.00;1.00
2973;DHT22;1496;51.404;7.232;2022-09-23T16:15:30;16.00;1.00
2973;DHT22;1496;51.404;7.232;2022-09-23T16:17:56;15.90;1.00
2973;DHT22;1496;51.404;7.232;2022-09-23T16:20:23;15.90;1.00
2973;DHT22;1496;51.404;7.232;2022-09-23T16:23:01;15.90;1.00
2973;DHT22;1496;51.404;7.232;2022-09-23T16:25:28;15.90;1.00
2973;DHT22;1496;51.404;7.232;2022-09-23T16:28:06;15.90;1.00
2973;DHT22;1496;51.404;7.232;2022-09-23T16:30:33;15.90;2.60
2973;DHT22;1496;51.404;7.232;2022-09-23T16:32:59;15.90;4.20
2973;DHT22;1496;51.404;7.232;2022-09-23T16:35:27;15.80;4.70
2973;DHT22;1496;51.404;7.232;2022-09-23T16:37:53;15.80;6.50
2973;DHT22;1496;51.404;7.232;2022-09-23T16:40:21;15.70;4.00
2973;DHT22;1496;51.404;7.232;2022-09-23T16:42:49;15.80;5.90
2973;DHT22;1496;51.404;7.232;2022-09-23T16:45:18;15.70;6.20
2973;DHT22;1496;51.404;7.232;2022-09-23T16:47:48;15.70;8.40
2973;DHT22;1496;51.404;7.232;2022-09-23T16:50:20;15.60;7.00
2973;DHT22;1496;51.404;7.232;2022-09-23T16:52:52;15.60;8.40
2973;DHT22;1496;51.404;7.232;2022-09-23T16:55:21;15.50;9.00
2973;DHT22;1496;51.404;7.232;2022-09-23T16:57:49;15.50;9.30
2973;DHT22;1496;51.404;7.232;2022-09-23T17:00:15;15.50;7.80
2973;DHT22;1496;51.404;7.232;2022-09-23T17:03:00;15.50;7.80
2973;DHT22;1496;51.404;7.232;2022-09-23T17:05:45;15.40;6.20
2973;DHT22;1496;51.404;7.232;2022-09-23T17:08:12;15.40;5.30
2973;DHT22;1496;51.404;7.232;2022-09-23T17:10:39;15.40;12.50
2973;DHT22;1496;51.404;7.232;2022-09-23T17:13:05;15.40;5.60
2973;DHT22;1496;51.404;7.232;2022-09-23T17:15:35;15.40;7.60
2973;DHT22;1496;51.404;7.232;2022-09-23T17:18:02;15.30;8.30
2973;DHT22;1496;51.404;7.232;2022-09-23T17:20:28;15.30;9.00
2973;DHT22;1496;51.404;7.232;2022-09-23T17:22:54;15.20;9.50
2973;DHT22;1496;51.404;7.232;2022-09-23T17:25:20;15.20;8.10
2973;DHT22;1496;51.404;7.232;2022-09-23T17:27:49;15.20;10.60
2973;DHT22;1496;51.404;7.232;2022-09-23T17:30:15;15.10;11.60
2973;DHT22;1496;51.404;7.232;2022-09-23T17:32:41;15.00;20.90
2973;DHT22;1496;51.404;7.232;2022-09-23T17:35:08;15.00;15.00
2973;DHT22;1496;51.404;7.232;2022-09-23T17:37:34;14.90;17.00
2973;DHT22;1496;51.404;7.232;2022-09-23T17:40:00;14.90;18.10
2973;DHT22;1496;51.404;7.232;2022-09-23T17:42:26;15.00;18.30
2973;DHT22;1496;51.404;7.232;2022-09-23T17:44:52;15.00;16.30
2973;DHT22;1496;51.404;7.232;2022-09-23T17:47:21;14.90;14.40
2973;DHT22;1496;51.404;7.232;2022-09-23T17:49:47;14.90;11.80
2973;DHT22;1496;51.404;7.232;2022-09-23T17:52:18;14.90;10.10
2973;DHT22;1496;51.404;7.232;2022-09-23T17:54:44;15.00;9.70
2973;DHT22;1496;51.404;7.232;2022-09-23T17:57:10;15.00;9.80
2973;DHT22;1496;51.404;7.232;2022-09-23T17:59:36;15.00;9.30
2973;DHT22;1496;51.404;7.232;2022-09-23T18:02:02;15.00;10.10
2973;DHT22;1496;51.404;7.232;2022-09-23T18:04:27;15.00;9.20
2973;DHT22;1496;51.404;7.232;2022-09-23T18:06:53;14.90;7.20
2973;DHT22;1496;51.404;7.232;2022-09-23T18:09:19;14.90;7.50
2973;DHT22;1496;51.404;7.232;2022-09-23T18:11:45;14.90;7.20
2973;DHT22;1496;51.404;7.232;2022-09-23T18:14:18;14.80;7.90
2973;DHT22;1496;51.404;7.232;2022-09-23T18:16:46;14.80;9.00
2973;DHT22;1496;51.404;7.232;2022-09-23T18:19:14;14.80;6.90
2973;DHT22;1496;51.404;7.232;2022-09-23T18:21:43;14.80;8.20
2973;DHT22;1496;51.404;7.232;2022-09-23T18:24:12;14.80;8.80
2973;DHT22;1496;51.404;7.232;2022-09-23T18:26:37;14.70;7.30
2973;DHT22;1496;51.404;7.232;2022-09-23T18:29:04;14.70;6.40
2973;DHT22;1496;51.404;7.232;2022-09-23T18:31:31;14.70;6.90
2973;DHT22;1496;51.404;7.232;2022-09-23T18:34:00;14.70;5.40
2973;DHT22;1496;51.404;7.232;2022-09-23T18:36:26;14.70;5.40
2973;DHT22;1496;51.404;7.232;2022-09-23T18:38:54;14.60;7.30
2973;DHT22;1496;51.404;7.232;2022-09-23T18:41:19;14.60;8.90
2973;DHT22;1496;51.404;7.232;2022-09-23T18:43:45;14.50;9.60
2973;DHT22;1496;51.404;7.232;2022-09-23T18:46:17;14.50;7.30